createdAt,value
2023-03-22T00:04:01.455Z,11.90
2023-03-22T00:08:18.948Z,11.73
2023-03-22T00:12:36.178Z,12.30
2023-03-22T00:16:53.488Z,11.02
2023-03-22T00:21:13.426Z,11.98
2023-03-22T00:25:31.030Z,11.07
2023-03-22T00:29:48.232Z,10.82
2023-03-22T00:34:05.374Z,10.52
2023-03-22T00:38:29.956Z,11.00
2023-03-22T00:42:56.907Z,10.30
2023-03-22T00:47:14.168Z,10.77
2023-03-22T00:51:31.355Z,10.43
2023-03-22T00:55:48.498Z,10.48
2023-03-22T01:00:16.408Z,10.55
2023-03-22T01:04:35.791Z,10.02
2023-03-22T01:08:55.297Z,10.20
2023-03-22T01:13:12.986Z,10.35
2023-03-22T01:17:30.240Z,10.85
2023-03-22T01:21:47.474Z,9.80
2023-03-22T01:26:05.646Z,9.73
2023-03-22T01:30:22.960Z,10.40
2023-03-22T01:34:40.269Z,10.00
2023-03-22T01:38:57.552Z,10.70
2023-03-22T01:43:17.287Z,10.07
2023-03-22T01:47:35.056Z,10.82
2023-03-22T01:51:55.562Z,11.02
2023-03-22T01:56:13.355Z,10.88
2023-03-22T02:00:30.978Z,10.27
2023-03-22T02:04:57.859Z,11.07
2023-03-22T02:09:22.108Z,11.88
2023-03-22T02:14:13.224Z,11.52
2023-03-22T02:19:08.586Z,12.70
2023-03-22T02:23:40.725Z,12.23
2023-03-22T02:28:08.552Z,12.43
2023-03-22T02:32:42.767Z,11.63
2023-03-22T02:37:21.624Z,12.20
2023-03-22T02:41:46.322Z,11.93
2023-03-22T02:46:12.649Z,12.05
2023-03-22T02:50:55.882Z,12.95
2023-03-22T02:55:24.484Z,13.35
2023-03-22T02:59:43.539Z,11.55
2023-03-22T03:04:04.900Z,11.55
2023-03-22T03:08:23.863Z,11.48
2023-03-22T03:12:41.087Z,12.55
2023-03-22T03:17:15.805Z,12.20
2023-03-22T03:21:54.122Z,11.85
2023-03-22T03:26:20.626Z,12.77
2023-03-22T03:30:56.936Z,12.82
2023-03-22T03:35:28.339Z,14.15
2023-03-22T03:39:54.669Z,12.82
2023-03-22T03:44:12.882Z,13.20
2023-03-22T03:48:34.921Z,13.90
2023-03-22T03:52:53.835Z,13.40
2023-03-22T03:57:11.986Z,13.70
2023-03-22T04:01:29.211Z,14.27
2023-03-22T04:05:46.387Z,14.32
2023-03-22T04:10:04.433Z,12.60
2023-03-22T04:14:23.834Z,12.50
2023-03-22T04:18:41.046Z,12.50
2023-03-22T04:22:58.808Z,12.73
2023-03-22T04:27:20.828Z,12.82
2023-03-22T04:31:39.156Z,12.48
2023-03-22T04:35:57.392Z,12.38
2023-03-22T04:40:20.896Z,12.48
2023-03-22T04:44:38.185Z,12.85
2023-03-22T04:48:55.572Z,11.57
2023-03-22T04:53:12.842Z,11.13
2023-03-22T04:57:30.024Z,11.05
2023-03-22T05:01:48.279Z,10.82
2023-03-22T05:06:07.919Z,10.52
2023-03-22T05:10:25.279Z,10.93
2023-03-22T05:14:45.991Z,9.93
2023-03-22T05:19:03.435Z,10.30
2023-03-22T05:23:21.177Z,10.68
2023-03-22T05:27:39.173Z,10.68
2023-03-22T05:31:56.436Z,10.25
2023-03-22T05:36:13.704Z,11.25
2023-03-22T05:40:31.433Z,11.30
2023-03-22T05:44:48.555Z,10.07
2023-03-22T05:49:05.804Z,10.25
2023-03-22T05:53:23.910Z,9.90
2023-03-22T05:57:41.681Z,10.57
2023-03-22T06:01:58.859Z,11.05
2023-03-22T06:06:16.151Z,12.05
2023-03-22T06:10:33.317Z,11.23
2023-03-22T06:14:50.897Z,11.50
2023-03-22T06:19:08.089Z,11.02
2023-03-22T06:23:25.790Z,11.10
2023-03-22T06:27:43.010Z,10.90
2023-03-22T06:32:00.670Z,11.27
2023-03-22T06:36:17.984Z,11.27
2023-03-22T06:40:36.116Z,11.82
2023-03-22T06:44:53.355Z,12.33
2023-03-22T06:49:10.551Z,11.43
2023-03-22T06:53:28.159Z,10.57
2023-03-22T06:57:45.489Z,11.18
2023-03-22T07:02:02.692Z,10.68
2023-03-22T07:06:20.008Z,10.32
2023-03-22T07:10:37.310Z,10.23
2023-03-22T07:14:54.666Z,10.50
2023-03-22T07:19:12.261Z,9.82
2023-03-22T07:23:29.821Z,9.68
2023-03-22T07:27:47.216Z,9.85
2023-03-22T07:32:04.599Z,10.05
2023-03-22T07:36:23.932Z,9.82
2023-03-22T07:40:41.444Z,9.18
2023-03-22T07:44:59.170Z,9.55
2023-03-22T07:49:16.832Z,8.95
2023-03-22T07:53:34.824Z,8.90
2023-03-22T07:57:52.164Z,7.73
2023-03-22T08:02:11.145Z,8.15
2023-03-22T08:06:29.782Z,7.43
2023-03-22T08:10:51.415Z,8.02
2023-03-22T08:15:09.486Z,7.95
2023-03-22T08:19:27.126Z,7.00
2023-03-22T08:23:44.368Z,7.05
2023-03-22T08:28:01.664Z,7.03
2023-03-22T08:32:18.834Z,6.50
2023-03-22T08:36:38.130Z,6.05
2023-03-22T08:40:55.408Z,6.60
2023-03-22T08:45:12.886Z,6.65
2023-03-22T08:49:31.434Z,6.40
2023-03-22T08:53:49.659Z,6.47
2023-03-22T08:58:06.850Z,7.20
2023-03-22T09:02:25.149Z,5.90
2023-03-22T09:06:45.364Z,6.25
2023-03-22T09:11:02.973Z,6.05
2023-03-22T09:15:20.561Z,6.03
2023-03-22T09:19:37.864Z,5.63
2023-03-22T09:23:55.816Z,6.32
2023-03-22T09:28:13.583Z,5.97
2023-03-22T09:32:31.325Z,6.20
2023-03-22T09:36:48.778Z,6.72
2023-03-22T09:41:11.747Z,6.13
2023-03-22T09:45:55.241Z,7.53
2023-03-22T09:50:28.053Z,6.57
2023-03-22T09:54:47.393Z,6.10
2023-03-22T09:59:30.634Z,6.25
2023-03-22T10:04:18.806Z,5.70
2023-03-22T10:08:53.809Z,5.70
2023-03-22T10:13:21.652Z,5.10
2023-03-22T10:17:42.229Z,4.65
2023-03-22T10:22:02.383Z,4.45
2023-03-22T10:26:29.516Z,3.78
2023-03-22T10:30:53.523Z,3.97
2023-03-22T10:35:15.620Z,3.72
2023-03-22T10:39:42.714Z,3.70
2023-03-22T10:44:02.335Z,2.70
2023-03-22T10:48:27.762Z,3.28
2023-03-22T10:53:26.952Z,2.88
2023-03-22T10:57:56.442Z,3.00
2023-03-22T11:02:24.893Z,2.25
2023-03-22T11:06:56.175Z,2.60
2023-03-22T11:11:38.441Z,2.58
2023-03-22T11:16:02.557Z,2.05
2023-03-22T11:20:20.632Z,2.13
2023-03-22T11:24:37.978Z,1.90
2023-03-22T11:29:05.116Z,1.88
2023-03-22T11:33:22.653Z,2.00
2023-03-22T11:37:54.982Z,1.92
2023-03-22T11:42:19.787Z,2.10
2023-03-22T11:46:38.111Z,2.47
2023-03-22T11:51:04.209Z,2.20
2023-03-22T11:55:21.813Z,2.28
2023-03-22T11:59:47.237Z,2.28
2023-03-22T12:04:09.123Z,2.10
2023-03-22T12:08:38.276Z,2.20
2023-03-22T12:13:12.955Z,2.10
2023-03-22T12:17:38.341Z,2.40
2023-03-22T12:22:02.012Z,2.17
2023-03-22T12:26:26.331Z,2.05
2023-03-22T12:30:56.473Z,2.00
2023-03-22T12:35:22.751Z,1.88
2023-03-22T12:39:56.198Z,1.83
2023-03-22T12:44:29.309Z,1.50
2023-03-22T12:48:52.049Z,1.80
2023-03-22T12:53:16.334Z,1.83
2023-03-22T12:57:33.739Z,1.85
2023-03-22T13:02:06.045Z,1.40
2023-03-22T13:06:54.457Z,1.55
2023-03-22T13:11:23.354Z,1.60
2023-03-22T13:16:02.290Z,1.80
2023-03-22T13:20:27.022Z,1.83
2023-03-22T13:25:11.056Z,1.63
2023-03-22T13:29:38.930Z,1.60
2023-03-22T13:33:58.189Z,1.98
2023-03-22T13:38:37.970Z,2.00
2023-03-22T13:43:08.097Z,2.38
2023-03-22T13:47:42.811Z,1.83
2023-03-22T13:52:06.764Z,1.67
2023-03-22T13:56:42.161Z,1.92
2023-03-22T14:01:00.030Z,2.05
2023-03-22T14:05:22.356Z,1.90
2023-03-22T14:09:45.548Z,1.80
2023-03-22T14:14:19.653Z,2.00
2023-03-22T14:18:41.561Z,1.98
